createdAt,value
2022-10-22T00:00:00.337Z,0.0
2022-10-22T00:05:00.290Z,0.0
2022-10-22T00:10:00.310Z,0.0
2022-10-22T00:15:00.309Z,0.0
2022-10-22T00:20:00.385Z,0.0
2022-10-22T00:25:00.287Z,0.0
2022-10-22T00:30:00.338Z,0.0
2022-10-22T00:35:00.305Z,0.0
2022-10-22T00:40:00.314Z,0.0
2022-10-22T00:45:00.309Z,0.0
2022-10-22T00:50:00.511Z,0.0
2022-10-22T00:55:00.294Z,0.0
2022-10-22T01:00:00.431Z,0.0
2022-10-22T01:05:00.287Z,0.0
2022-10-22T01:10:00.341Z,0.0
2022-10-22T01:15:00.308Z,2.2
2022-10-22T01:20:00.328Z,3.2
2022-10-22T01:25:00.309Z,0.0
2022-10-22T01:30:00.302Z,2.5
2022-10-22T01:35:00.284Z,0.0
2022-10-22T01:40:00.351Z,0.0
2022-10-22T01:45:00.367Z,2.2
2022-10-22T01:50:00.299Z,3.6
2022-10-22T01:55:00.291Z,2.5
2022-10-22T02:00:00.404Z,6.8
2022-10-22T02:05:00.305Z,2.9
2022-10-22T02:10:00.318Z,1.4
2022-10-22T02:15:00.305Z,2.5
2022-10-22T02:20:00.494Z,0.0
2022-10-22T02:25:00.285Z,4.0
2022-10-22T02:30:00.485Z,0.0
2022-10-22T02:35:00.308Z,2.5
2022-10-22T02:40:00.357Z,2.2
2022-10-22T02:45:00.292Z,0.0
2022-10-22T02:50:00.337Z,2.9
2022-10-22T02:55:00.289Z,1.4
2022-10-22T03:00:00.368Z,0.0
2022-10-22T03:05:00.323Z,4.3
2022-10-22T03:10:00.323Z,4.3
2022-10-22T03:15:00.304Z,1.8
2022-10-22T03:20:00.335Z,2.2
2022-10-22T03:25:00.309Z,0.0
2022-10-22T03:30:00.344Z,1.4
2022-10-22T03:40:00.331Z,0.0
2022-10-22T03:45:00.296Z,0.0
2022-10-22T03:50:00.319Z,0.0
2022-10-22T03:55:00.309Z,0.0
2022-10-22T04:00:00.315Z,0.0
2022-10-22T04:05:00.607Z,2.2
2022-10-22T04:10:00.350Z,2.2
2022-10-22T04:15:00.312Z,0.0
2022-10-22T04:20:00.325Z,1.8
2022-10-22T04:25:00.479Z,1.4
2022-10-22T04:30:00.330Z,1.8
2022-10-22T04:35:00.321Z,0.0
2022-10-22T04:40:00.380Z,0.0
2022-10-22T04:45:00.309Z,2.2
2022-10-22T04:50:00.413Z,2.2
2022-10-22T04:55:00.351Z,0.0
2022-10-22T05:00:00.356Z,0.0
2022-10-22T05:05:00.287Z,0.0
2022-10-22T05:10:00.345Z,0.0
2022-10-22T05:15:00.328Z,0.0
2022-10-22T05:20:00.371Z,0.0
2022-10-22T05:25:00.301Z,0.0
2022-10-22T05:30:00.332Z,0.0
2022-10-22T05:35:00.305Z,0.0
2022-10-22T05:40:30.321Z,0.0
2022-10-22T05:45:00.306Z,0.0
2022-10-22T05:50:00.315Z,1.4
2022-10-22T05:55:00.299Z,2.2
2022-10-22T06:00:00.302Z,2.2
2022-10-22T06:05:00.302Z,0.0
2022-10-22T06:10:00.337Z,0.0
2022-10-22T06:15:00.303Z,0.0
2022-10-22T06:20:00.666Z,1.4
2022-10-22T06:25:00.338Z,1.8
2022-10-22T06:30:00.348Z,3.6
2022-10-22T06:35:00.331Z,2.5
2022-10-22T06:40:00.324Z,2.2
2022-10-22T06:45:02.993Z,2.2
2022-10-22T06:50:00.330Z,3.2
2022-10-22T06:55:00.310Z,4.0
2022-10-22T07:00:00.333Z,4.3
2022-10-22T07:05:00.291Z,1.8
2022-10-22T07:10:00.335Z,1.4
2022-10-22T07:15:00.322Z,1.4
2022-10-22T07:20:00.370Z,0.0
2022-10-22T07:25:07.714Z,0.0
2022-10-22T07:30:00.346Z,0.0
2022-10-22T07:35:00.278Z,0.0
2022-10-22T07:40:04.420Z,4.7
2022-10-22T07:45:00.338Z,7.2
2022-10-22T07:50:00.335Z,2.2
2022-10-22T07:55:00.267Z,3.2
2022-10-22T08:00:00.342Z,0.0
2022-10-22T08:05:00.302Z,2.9
2022-10-22T08:10:00.326Z,0.0
2022-10-22T08:15:00.305Z,1.4
2022-10-22T08:20:00.397Z,0.0
2022-10-22T08:25:00.324Z,0.0
2022-10-22T08:30:00.565Z,2.2
2022-10-22T08:35:02.749Z,5.8
2022-10-22T08:40:00.364Z,1.4
2022-10-22T08:45:00.348Z,3.6
2022-10-22T08:50:00.413Z,1.4
2022-10-22T08:55:00.277Z,4.7
2022-10-22T09:00:00.343Z,4.7
2022-10-22T09:05:00.388Z,3.2
2022-10-22T09:10:00.315Z,2.2
2022-10-22T09:15:00.344Z,2.9
2022-10-22T09:20:00.808Z,2.5
2022-10-22T09:25:00.293Z,6.1
2022-10-22T09:30:00.341Z,3.2
2022-10-22T09:35:00.278Z,3.6
2022-10-22T09:40:00.680Z,6.1
2022-10-22T09:45:00.390Z,5.8
2022-10-22T09:50:00.384Z,3.2
2022-10-22T09:55:00.280Z,5.8
2022-10-22T10:00:00.327Z,4.0
2022-10-22T10:05:00.325Z,5.0
2022-10-22T10:10:00.330Z,5.0
2022-10-22T10:15:00.285Z,4.7
2022-10-22T10:20:04.454Z,4.7
2022-10-22T10:25:00.311Z,0.0
2022-10-22T10:30:00.342Z,5.0
2022-10-22T10:35:00.322Z,0.0
2022-10-22T10:40:00.303Z,4.7
2022-10-22T10:45:00.324Z,2.9
2022-10-22T10:50:00.356Z,5.4
2022-10-22T10:55:00.289Z,8.3
2022-10-22T11:00:00.326Z,10.1
2022-10-22T11:05:00.289Z,2.5
2022-10-22T11:10:00.323Z,15.8
2022-10-22T11:15:00.315Z,5.4
2022-10-22T11:20:00.940Z,7.2
2022-10-22T11:25:00.312Z,9.7
2022-10-22T11:30:00.335Z,7.2
2022-10-22T11:35:00.311Z,8.6
2022-10-22T11:40:00.314Z,12.2
2022-10-22T11:45:00.307Z,5.8
2022-10-22T11:50:00.339Z,9.0
2022-10-22T11:55:00.452Z,5.8
2022-10-22T12:00:00.343Z,2.2
2022-10-22T12:05:00.289Z,6.1
2022-10-22T12:10:00.476Z,7.6
2022-10-22T12:15:00.345Z,7.2
2022-10-22T12:20:02.945Z,4.3
2022-10-22T12:25:00.275Z,3.6
2022-10-22T12:30:00.371Z,8.6
2022-10-22T12:35:00.313Z,12.6
2022-10-22T12:40:00.340Z,2.2
2022-10-22T12:45:00.315Z,8.3
2022-10-22T12:50:00.305Z,3.6
2022-10-22T12:55:00.290Z,9.4
2022-10-22T13:05:00.303Z,7.6
2022-10-22T13:10:00.336Z,8.6
2022-10-22T13:15:00.280Z,7.6
2022-10-22T13:20:00.344Z,7.2
2022-10-22T13:25:00.564Z,8.6
2022-10-22T13:30:00.317Z,2.5
2022-10-22T13:35:00.290Z,7.9
2022-10-22T13:40:00.329Z,15.1
2022-10-22T13:45:00.278Z,4.0
2022-10-22T13:50:00.655Z,5.0
2022-10-22T13:55:00.281Z,7.6
2022-10-22T14:00:00.376Z,4.0
2022-10-22T14:05:00.363Z,6.1
2022-10-22T14:10:00.320Z,6.5
2022-10-22T14:15:00.672Z,8.3
2022-10-22T14:20:00.346Z,4.7
2022-10-22T14:25:00.383Z,6.1
2022-10-22T14:30:00.308Z,3.2
2022-10-22T14:35:00.285Z,5.0
2022-10-22T14:40:00.421Z,2.9
2022-10-22T14:45:00.288Z,13.7
2022-10-22T14:50:00.569Z,6.8
2022-10-22T14:55:00.316Z,4.7
2022-10-22T15:00:00.561Z,5.8
2022-10-22T15:05:00.481Z,6.1
2022-10-22T15:10:00.607Z,0.0
2022-10-22T15:15:00.279Z,0.0
2022-10-22T15:20:00.339Z,1.4
2022-10-22T15:25:00.357Z,1.1
2022-10-22T15:30:00.576Z,2.2
2022-10-22T15:35:00.302Z,0.0
2022-10-22T15:40:00.356Z,0.0
2022-10-22T15:45:00.287Z,1.4
2022-10-22T15:50:00.429Z,0.0
2022-10-22T15:55:00.495Z,0.0
2022-10-22T16:00:00.356Z,2.2
2022-10-22T16:05:00.309Z,2.5
2022-10-22T16:10:00.358Z,4.3
2022-10-22T16:15:00.295Z,0.0
2022-10-22T16:20:00.663Z,0.0
2022-10-22T16:25:00.291Z,0.0
2022-10-22T16:30:00.334Z,0.0
2022-10-22T16:35:00.323Z,0.0
2022-10-22T16:40:08.524Z,0.0
2022-10-22T16:45:00.283Z,0.0
2022-10-22T16:50:00.398Z,0.0
2022-10-22T16:55:00.274Z,2.2
2022-10-22T17:00:00.323Z,0.0
2022-10-22T17:05:00.285Z,0.0
2022-10-22T17:10:00.300Z,0.0
2022-10-22T17:15:00.405Z,0.0
2022-10-22T17:20:00.323Z,0.0
2022-10-22T17:25:00.275Z,0.0
2022-10-22T17:30:00.314Z,4.3
2022-10-22T17:35:00.327Z,3.6
2022-10-22T17:40:00.344Z,4.0
2022-10-22T17:45:00.279Z,4.3
2022-10-22T17:50:00.298Z,4.3
2022-10-22T17:55:00.285Z,4.0
2022-10-22T18:00:00.311Z,4.0
2022-10-22T18:05:00.285Z,6.8
2022-10-22T18:10:00.344Z,4.7
2022-10-22T18:15:00.300Z,9.4
2022-10-22T18:20:00.319Z,8.6
2022-10-22T18:25:00.277Z,6.1
2022-10-22T18:30:00.714Z,5.0
2022-10-22T18:35:00.327Z,6.1
2022-10-22T18:40:00.319Z,7.6
2022-10-22T18:50:00.360Z,5.8
2022-10-22T18:55:00.298Z,3.2
2022-10-22T19:00:00.329Z,2.9
2022-10-22T19:05:00.294Z,1.8
2022-10-22T19:10:00.308Z,0.0
2022-10-22T19:15:00.311Z,2.9
2022-10-22T19:20:00.337Z,2.2
2022-10-22T19:25:00.364Z,4.0
2022-10-22T19:30:00.345Z,2.9
2022-10-22T19:35:00.305Z,3.6
2022-10-22T19:40:00.311Z,3.2
2022-10-22T19:45:00.414Z,7.6
2022-10-22T19:50:00.321Z,14.4
2022-10-22T19:55:00.358Z,8.6
2022-10-22T20:00:00.290Z,10.4
2022-10-22T20:05:00.422Z,17.3
2022-10-22T20:10:00.296Z,14.8
2022-10-22T20:15:00.296Z,6.5
2022-10-22T20:20:00.318Z,2.2
2022-10-22T20:25:00.291Z,3.2
2022-10-22T20:30:00.335Z,3.6
2022-10-22T20:35:00.350Z,7.2
2022-10-22T20:40:00.465Z,4.7
2022-10-22T20:45:00.273Z,6.1
2022-10-22T20:50:00.294Z,9.0
2022-10-22T20:55:00.310Z,9.4
2022-10-22T21:00:00.345Z,8.3
2022-10-22T21:05:00.308Z,10.8
2022-10-22T21:10:00.335Z,14.4
2022-10-22T21:15:00.276Z,11.9
2022-10-22T21:20:00.651Z,7.9
2022-10-22T21:25:00.386Z,8.3
2022-10-22T21:30:00.322Z,4.0
2022-10-22T21:35:00.278Z,6.5
2022-10-22T21:40:00.277Z,8.6
2022-10-22T21:45:00.547Z,4.3
2022-10-22T21:50:00.347Z,8.3
2022-10-22T21:55:00.281Z,4.0
2022-10-22T22:00:00.364Z,3.2
2022-10-22T22:05:00.391Z,2.5
2022-10-22T22:10:00.297Z,6.1
2022-10-22T22:15:00.352Z,5.8
2022-10-22T22:20:00.324Z,1.8
2022-10-22T22:25:00.344Z,3.6
2022-10-22T22:30:00.334Z,0.0
2022-10-22T22:35:00.329Z,2.5
2022-10-22T22:40:00.319Z,2.2
2022-10-22T22:45:00.309Z,1.1
2022-10-22T22:50:00.332Z,3.2
2022-10-22T22:55:00.298Z,0.0
2022-10-22T23:00:00.334Z,0.0
2022-10-22T23:05:00.324Z,1.8
2022-10-22T23:10:00.396Z,2.2
2022-10-22T23:15:00.308Z,0.0
2022-10-22T23:20:00.319Z,0.0
2022-10-22T23:25:00.333Z,1.4
2022-10-22T23:30:00.641Z,1.8
2022-10-22T23:35:00.299Z,2.2
2022-10-22T23:40:00.370Z,4.0
2022-10-22T23:45:00.297Z,7.6
2022-10-22T23:50:00.554Z,3.6
2022-10-22T23:55:00.314Z,4.7
